createdAt,value
2023-02-14T00:00:51.857Z,1033.87
2023-02-14T00:01:51.849Z,1033.86
2023-02-14T00:02:51.911Z,1033.84
2023-02-14T00:03:51.861Z,1033.88
2023-02-14T00:04:51.890Z,1033.88
2023-02-14T00:05:51.830Z,1033.78
2023-02-14T00:06:51.793Z,1033.77
2023-02-14T00:07:51.777Z,1033.79
2023-02-14T00:08:51.802Z,1033.77
2023-02-14T00:09:51.759Z,1033.76
2023-02-14T00:10:51.764Z,1033.78
2023-02-14T00:11:51.757Z,1033.78
2023-02-14T00:12:51.730Z,1033.82
2023-02-14T00:13:51.759Z,1033.74
2023-02-14T00:14:51.720Z,1033.76
2023-02-14T00:15:51.739Z,1033.80
2023-02-14T00:16:51.686Z,1033.77
2023-02-14T00:17:51.691Z,1033.79
2023-02-14T00:18:51.668Z,1033.79
2023-02-14T00:19:51.675Z,1033.81
2023-02-14T00:20:51.669Z,1033.77
2023-02-14T00:21:51.666Z,1033.82
2023-02-14T00:22:51.616Z,1033.84
2023-02-14T00:23:51.603Z,1033.83
2023-02-14T00:24:51.605Z,1033.81
2023-02-14T00:25:51.609Z,1033.76
2023-02-14T00:26:51.590Z,1033.81
2023-02-14T00:27:51.579Z,1033.84
2023-02-14T00:28:51.562Z,1033.80
2023-02-14T00:29:51.607Z,1033.78
2023-02-14T00:30:51.581Z,1033.84
2023-02-14T00:31:51.599Z,1033.74
2023-02-14T00:32:51.509Z,1033.71
2023-02-14T00:33:51.515Z,1033.78
2023-02-14T00:34:51.486Z,1033.75
2023-02-14T00:35:51.511Z,1033.74
2023-02-14T00:36:51.470Z,1033.70
2023-02-14T00:37:51.452Z,1033.77
2023-02-14T00:38:51.439Z,1033.71
2023-02-14T00:39:51.460Z,1033.76
2023-02-14T00:40:51.449Z,1033.72
2023-02-14T00:41:51.445Z,1033.68
2023-02-14T00:42:51.403Z,1033.69
2023-02-14T00:43:51.392Z,1033.70
2023-02-14T00:44:51.427Z,1033.73
2023-02-14T00:45:51.416Z,1033.65
2023-02-14T00:46:51.367Z,1033.71
2023-02-14T00:47:51.396Z,1033.73
2023-02-14T00:48:51.334Z,1033.70
2023-02-14T00:49:51.317Z,1033.71
2023-02-14T00:50:51.347Z,1033.77
2023-02-14T00:51:51.301Z,1033.76
2023-02-14T00:52:51.313Z,1033.70
2023-02-14T00:53:51.281Z,1033.72
2023-02-14T00:54:51.269Z,1033.72
2023-02-14T00:55:51.281Z,1033.73
2023-02-14T00:56:51.258Z,1033.69
2023-02-14T00:57:51.263Z,1033.75
2023-02-14T00:58:51.224Z,1033.70
2023-02-14T00:59:51.208Z,1033.72
2023-02-14T01:00:51.252Z,1033.64
2023-02-14T01:01:51.194Z,1033.66
2023-02-14T01:02:51.308Z,1033.68
2023-02-14T01:03:51.203Z,1033.70
2023-02-14T01:04:51.161Z,1033.72
2023-02-14T01:05:51.147Z,1033.72
2023-02-14T01:06:51.140Z,1033.68
2023-02-14T01:07:51.151Z,1033.68
2023-02-14T01:08:51.114Z,1033.69
2023-02-14T01:09:51.100Z,1033.62
2023-02-14T01:10:51.099Z,1033.62
2023-02-14T01:11:51.094Z,1033.65
2023-02-14T01:12:51.093Z,1033.66
2023-02-14T01:13:51.063Z,1033.58
2023-02-14T01:14:51.076Z,1033.57
2023-02-14T01:15:51.028Z,1033.60
2023-02-14T01:16:51.111Z,1033.52
2023-02-14T01:17:51.041Z,1033.54
2023-02-14T01:18:51.004Z,1033.59
2023-02-14T01:19:51.051Z,1033.54
2023-02-14T01:20:50.980Z,1033.57
2023-02-14T01:21:50.971Z,1033.52
2023-02-14T01:22:50.960Z,1033.51
2023-02-14T01:23:50.960Z,1033.53
2023-02-14T01:24:50.973Z,1033.54
2023-02-14T01:25:50.929Z,1033.56
2023-02-14T01:26:50.916Z,1033.50
2023-02-14T01:27:50.899Z,1033.48
2023-02-14T01:28:50.931Z,1033.55
2023-02-14T01:29:51.012Z,1033.52
2023-02-14T01:30:50.902Z,1033.53
2023-02-14T01:31:50.974Z,1033.50
2023-02-14T01:32:50.853Z,1033.50
2023-02-14T01:33:50.872Z,1033.50
2023-02-14T01:34:50.862Z,1033.47
2023-02-14T01:35:50.847Z,1033.48
2023-02-14T01:36:50.815Z,1033.50
2023-02-14T01:37:50.795Z,1033.48
2023-02-14T01:38:50.789Z,1033.44
2023-02-14T01:39:50.779Z,1033.46
2023-02-14T01:40:50.789Z,1033.41
2023-02-14T01:41:50.752Z,1033.44
2023-02-14T01:42:50.744Z,1033.42
2023-02-14T01:43:50.736Z,1033.47
2023-02-14T01:44:50.755Z,1033.37
2023-02-14T01:45:50.890Z,1033.43
2023-02-14T01:46:50.710Z,1033.40
2023-02-14T01:47:50.700Z,1033.36
2023-02-14T01:48:50.694Z,1033.36
2023-02-14T01:49:50.672Z,1033.38
2023-02-14T01:50:50.686Z,1033.37
2023-02-14T01:51:50.675Z,1033.40
2023-02-14T01:52:50.637Z,1033.33
2023-02-14T01:53:50.660Z,1033.39
2023-02-14T01:54:50.621Z,1033.37
2023-02-14T01:55:50.642Z,1033.31
2023-02-14T01:56:50.606Z,1033.31
2023-02-14T01:57:50.586Z,1033.30
2023-02-14T01:58:50.581Z,1033.28
2023-02-14T01:59:50.565Z,1033.32
2023-02-14T02:00:50.615Z,1033.28
2023-02-14T02:01:50.552Z,1033.29
2023-02-14T02:02:50.536Z,1033.32
2023-02-14T02:03:50.520Z,1033.26
2023-02-14T02:04:50.532Z,1033.33
2023-02-14T02:05:50.497Z,1033.37
2023-02-14T02:06:50.487Z,1033.36
2023-02-14T02:07:50.502Z,1033.31
2023-02-14T02:08:50.479Z,1033.36
2023-02-14T02:09:50.485Z,1033.31
2023-02-14T02:10:50.447Z,1033.35
2023-02-14T02:11:50.427Z,1033.30
2023-02-14T02:12:50.421Z,1033.37
2023-02-14T02:13:50.410Z,1033.38
2023-02-14T02:14:50.423Z,1033.35
2023-02-14T02:15:50.408Z,1033.33
2023-02-14T02:16:50.441Z,1033.35
2023-02-14T02:17:50.373Z,1033.36
2023-02-14T02:18:50.382Z,1033.35
2023-02-14T02:19:50.392Z,1033.36
2023-02-14T02:20:50.343Z,1033.34
2023-02-14T02:21:50.323Z,1033.32
2023-02-14T02:22:50.319Z,1033.32
2023-02-14T02:23:50.319Z,1033.37
2023-02-14T02:24:50.316Z,1033.39
2023-02-14T02:25:50.295Z,1033.36
2023-02-14T02:26:50.280Z,1033.32
2023-02-14T02:27:50.256Z,1033.32
2023-02-14T02:28:50.254Z,1033.37
2023-02-14T02:29:50.313Z,1033.33
2023-02-14T02:30:50.392Z,1033.38
2023-02-14T02:31:50.396Z,1033.35
2023-02-14T02:32:50.207Z,1033.31
2023-02-14T02:33:50.203Z,1033.29
2023-02-14T02:34:50.212Z,1033.38
2023-02-14T02:35:50.190Z,1033.36
2023-02-14T02:36:50.163Z,1033.34
2023-02-14T02:37:50.158Z,1033.37
2023-02-14T02:38:50.141Z,1033.33
2023-02-14T02:39:50.185Z,1033.38
2023-02-14T02:40:50.161Z,1033.38
2023-02-14T02:41:50.110Z,1033.34
2023-02-14T02:42:50.097Z,1033.32
2023-02-14T02:43:50.092Z,1033.29
2023-02-14T02:44:50.074Z,1033.29
2023-02-14T02:45:50.109Z,1033.30
2023-02-14T02:46:50.057Z,1033.38
2023-02-14T02:47:50.048Z,1033.37
2023-02-14T02:48:50.031Z,1033.36
2023-02-14T02:49:50.024Z,1033.34
2023-02-14T02:50:50.048Z,1033.39
2023-02-14T02:51:50.021Z,1033.31
2023-02-14T02:52:49.988Z,1033.36
2023-02-14T02:53:49.975Z,1033.38
2023-02-14T02:54:49.964Z,1033.39
2023-02-14T02:55:49.982Z,1033.39
2023-02-14T02:56:49.978Z,1033.41
2023-02-14T02:57:49.934Z,1033.37
2023-02-14T02:58:49.920Z,1033.38
2023-02-14T02:59:49.911Z,1033.39
2023-02-14T03:00:49.919Z,1033.40
2023-02-14T03:01:49.950Z,1033.35
2023-02-14T03:02:49.903Z,1033.32
2023-02-14T03:03:49.870Z,1033.32
2023-02-14T03:04:49.879Z,1033.37
2023-02-14T03:05:49.845Z,1033.31
2023-02-14T03:06:49.862Z,1033.34
2023-02-14T03:07:49.830Z,1033.32
2023-02-14T03:08:49.809Z,1033.33
2023-02-14T03:09:49.802Z,1033.32
2023-02-14T03:10:49.795Z,1033.34
2023-02-14T03:11:49.850Z,1033.34
2023-02-14T03:12:49.774Z,1033.31
2023-02-14T03:13:49.767Z,1033.36
2023-02-14T03:14:49.747Z,1033.31
2023-02-14T03:15:49.901Z,1033.37
2023-02-14T03:16:49.731Z,1033.34
2023-02-14T03:17:49.756Z,1033.33
2023-02-14T03:18:49.706Z,1033.33
2023-02-14T03:19:49.698Z,1033.32
2023-02-14T03:20:49.683Z,1033.29
2023-02-14T03:21:49.674Z,1033.36
2023-02-14T03:22:49.724Z,1033.33
2023-02-14T03:23:49.654Z,1033.28
2023-02-14T03:24:49.635Z,1033.33
2023-02-14T03:25:49.627Z,1033.27
2023-02-14T03:26:49.618Z,1033.31
2023-02-14T03:27:49.658Z,1033.26
2023-02-14T03:28:49.597Z,1033.33
2023-02-14T03:29:49.609Z,1033.27
2023-02-14T03:30:49.722Z,1033.31
2023-02-14T03:31:49.714Z,1033.31
2023-02-14T03:32:49.546Z,1033.28
2023-02-14T03:33:49.568Z,1033.22
2023-02-14T03:34:49.526Z,1033.23
2023-02-14T03:35:49.524Z,1033.27
2023-02-14T03:36:49.513Z,1033.24
2023-02-14T03:37:49.505Z,1033.21
2023-02-14T03:38:49.513Z,1033.28
2023-02-14T03:39:49.482Z,1033.20
2023-02-14T03:40:49.544Z,1033.22
2023-02-14T03:41:49.464Z,1033.22
2023-02-14T03:42:49.443Z,1033.26
2023-02-14T03:43:49.486Z,1033.25
2023-02-14T03:44:49.523Z,1033.24
2023-02-14T03:45:49.414Z,1033.27
2023-02-14T03:46:49.404Z,1033.24
2023-02-14T03:47:49.407Z,1033.22
2023-02-14T03:48:49.405Z,1033.30
2023-02-14T03:49:49.375Z,1033.25
2023-02-14T03:50:49.358Z,1033.27
2023-02-14T03:51:49.377Z,1033.30
2023-02-14T03:52:49.335Z,1033.27
2023-02-14T03:53:49.358Z,1033.30
2023-02-14T03:54:49.311Z,1033.30
2023-02-14T03:55:49.318Z,1033.22
2023-02-14T03:56:49.297Z,1033.26
2023-02-14T03:57:49.279Z,1033.26
2023-02-14T03:58:49.266Z,1033.23
2023-02-14T03:59:49.310Z,1033.21
2023-02-14T04:00:49.246Z,1033.24
2023-02-14T04:01:49.290Z,1033.24
2023-02-14T04:02:49.262Z,1033.23
2023-02-14T04:03:49.270Z,1033.24
2023-02-14T04:04:49.203Z,1033.24
2023-02-14T04:05:49.195Z,1033.27
2023-02-14T04:06:49.207Z,1033.25
2023-02-14T04:07:49.175Z,1033.26
2023-02-14T04:08:49.164Z,1033.21
2023-02-14T04:09:49.175Z,1033.24
2023-02-14T04:10:49.137Z,1033.34
2023-02-14T04:11:49.148Z,1033.18
2023-02-14T04:12:49.117Z,1033.21
2023-02-14T04:13:49.109Z,1033.23
2023-02-14T04:14:49.096Z,1033.18
2023-02-14T04:15:49.141Z,1033.26
2023-02-14T04:16:49.100Z,1033.21
2023-02-14T04:17:49.067Z,1033.26
2023-02-14T04:18:49.052Z,1033.17
2023-02-14T04:19:49.048Z,1033.16
2023-02-14T04:20:49.058Z,1033.11
2023-02-14T04:21:49.041Z,1033.18
2023-02-14T04:22:49.002Z,1033.13
2023-02-14T04:23:48.999Z,1033.16
2023-02-14T04:24:48.988Z,1033.17
2023-02-14T04:25:48.979Z,1033.14
2023-02-14T04:26:48.983Z,1033.10
2023-02-14T04:27:48.954Z,1033.17
2023-02-14T04:28:48.939Z,1033.19
2023-02-14T04:29:48.938Z,1033.17
2023-02-14T04:30:48.972Z,1033.13
2023-02-14T04:31:49.108Z,1033.11
2023-02-14T04:32:48.931Z,1033.20
2023-02-14T04:33:48.888Z,1033.22
2023-02-14T04:34:48.872Z,1033.20
2023-02-14T04:35:48.902Z,1033.23
2023-02-14T04:36:48.862Z,1033.18
2023-02-14T04:37:48.872Z,1033.15
2023-02-14T04:38:48.841Z,1033.19
2023-02-14T04:39:48.835Z,1033.14
2023-02-14T04:40:48.839Z,1033.25
2023-02-14T04:41:48.800Z,1033.22
2023-02-14T04:42:48.791Z,1033.21
2023-02-14T04:43:48.780Z,1033.17
2023-02-14T04:44:48.762Z,1033.18
2023-02-14T04:45:48.792Z,1033.13
2023-02-14T04:46:48.785Z,1033.16
2023-02-14T04:47:48.759Z,1033.10
2023-02-14T04:48:48.721Z,1033.15
2023-02-14T04:49:48.724Z,1033.09
2023-02-14T04:50:48.728Z,1033.11
2023-02-14T04:51:48.691Z,1033.11
2023-02-14T04:52:48.701Z,1033.10
2023-02-14T04:53:48.675Z,1033.12
2023-02-14T04:54:48.662Z,1033.08
2023-02-14T04:55:48.672Z,1033.07
2023-02-14T04:56:48.631Z,1033.04
2023-02-14T04:57:48.653Z,1033.02
2023-02-14T04:58:48.611Z,1033.08
2023-02-14T04:59:48.603Z,1032.99
2023-02-14T05:00:48.639Z,1033.02
2023-02-14T05:01:48.657Z,1033.03
2023-02-14T05:02:48.608Z,1033.04
2023-02-14T05:03:48.580Z,1033.06
2023-02-14T05:04:49.819Z,1033.05
2023-02-14T05:05:48.597Z,1033.01
2023-02-14T05:06:48.556Z,1033.04
2023-02-14T05:07:48.528Z,1032.98
2023-02-14T05:08:48.534Z,1032.99
2023-02-14T05:09:48.499Z,1032.95
2023-02-14T05:10:48.502Z,1032.98
2023-02-14T05:11:48.483Z,1032.92
2023-02-14T05:12:48.478Z,1032.98
2023-02-14T05:13:48.488Z,1032.98
2023-02-14T05:14:48.436Z,1032.93
2023-02-14T05:15:48.431Z,1032.95
2023-02-14T05:16:48.586Z,1032.93
2023-02-14T05:17:48.411Z,1032.95
2023-02-14T05:18:48.424Z,1032.93
2023-02-14T05:19:48.474Z,1032.96
2023-02-14T05:20:48.398Z,1032.90
2023-02-14T05:21:48.365Z,1032.89
2023-02-14T05:22:48.350Z,1032.94
2023-02-14T05:23:48.388Z,1032.90
2023-02-14T05:24:48.338Z,1032.92
2023-02-14T05:25:48.320Z,1032.92
2023-02-14T05:26:48.324Z,1032.84
2023-02-14T05:27:48.301Z,1032.88
2023-02-14T05:28:48.295Z,1032.91
2023-02-14T05:29:48.398Z,1032.88
2023-02-14T05:30:48.345Z,1032.88
2023-02-14T05:31:48.370Z,1032.88
2023-02-14T05:32:48.253Z,1032.85
2023-02-14T05:33:48.247Z,1032.83
2023-02-14T05:34:48.240Z,1032.86
2023-02-14T05:35:48.236Z,1032.86
2023-02-14T05:36:48.209Z,1032.90
2023-02-14T05:37:48.202Z,1032.95
2023-02-14T05:38:48.174Z,1032.90
2023-02-14T05:39:48.211Z,1032.93
2023-02-14T05:40:48.181Z,1032.83
2023-02-14T05:41:48.151Z,1032.82
2023-02-14T05:42:48.141Z,1032.88
2023-02-14T05:43:48.123Z,1032.86
2023-02-14T05:44:48.108Z,1032.86
2023-02-14T05:45:48.219Z,1032.86
2023-02-14T05:46:48.087Z,1032.94
2023-02-14T05:47:48.115Z,1032.89
2023-02-14T05:48:48.087Z,1032.86
2023-02-14T05:49:48.062Z,1032.90
2023-02-14T05:50:48.050Z,1032.90
2023-02-14T05:51:48.078Z,1032.90
2023-02-14T05:52:48.054Z,1032.90
2023-02-14T05:53:48.030Z,1032.93
2023-02-14T05:54:48.004Z,1032.93
2023-02-14T05:55:47.992Z,1032.91
2023-02-14T05:56:48.005Z,1032.91
2023-02-14T05:57:48.013Z,1032.87
2023-02-14T05:58:47.962Z,1032.90
2023-02-14T05:59:47.953Z,1032.82
2023-02-14T06:00:47.947Z,1032.88
2023-02-14T06:01:47.985Z,1032.84
2023-02-14T06:02:47.924Z,1032.81
2023-02-14T06:03:47.932Z,1032.81
2023-02-14T06:04:48.014Z,1032.85
2023-02-14T06:05:47.889Z,1032.83
2023-02-14T06:06:47.881Z,1032.83
2023-02-14T06:07:47.906Z,1032.87
2023-02-14T06:08:47.876Z,1032.89
2023-02-14T06:09:47.850Z,1032.84
2023-02-14T06:10:47.871Z,1032.81
2023-02-14T06:11:47.829Z,1032.83
2023-02-14T06:12:47.812Z,1032.82
2023-02-14T06:13:47.807Z,1032.89
2023-02-14T06:14:47.802Z,1032.86
2023-02-14T06:15:47.812Z,1032.87
2023-02-14T06:16:47.835Z,1032.88
2023-02-14T06:17:47.768Z,1032.83
2023-02-14T06:18:47.753Z,1032.82
2023-02-14T06:19:47.741Z,1032.90
2023-02-14T06:20:47.756Z,1032.86
2023-02-14T06:21:47.713Z,1032.88
2023-02-14T06:22:47.700Z,1032.84
2023-02-14T06:23:47.759Z,1032.91
2023-02-14T06:24:47.684Z,1032.97
2023-02-14T06:25:47.693Z,1032.95
2023-02-14T06:26:47.667Z,1032.89
2023-02-14T06:27:49.285Z,1032.92
2023-02-14T06:28:47.680Z,1032.91
2023-02-14T06:29:47.671Z,1032.92
2023-02-14T06:30:47.827Z,1032.90
2023-02-14T06:31:47.840Z,1032.90
2023-02-14T06:32:47.597Z,1032.92
2023-02-14T06:33:47.598Z,1032.95
2023-02-14T06:34:47.571Z,1032.93
2023-02-14T06:35:47.577Z,1032.94
2023-02-14T06:36:47.579Z,1032.92
2023-02-14T06:37:47.563Z,1032.94
2023-02-14T06:38:47.553Z,1032.94
2023-02-14T06:39:47.543Z,1032.94
2023-02-14T06:40:47.517Z,1032.90
2023-02-14T06:41:47.494Z,1032.90
2023-02-14T06:42:47.499Z,1032.90
2023-02-14T06:43:47.500Z,1032.85
2023-02-14T06:44:47.472Z,1032.92
2023-02-14T06:45:47.521Z,1032.88
2023-02-14T06:46:47.444Z,1032.92
2023-02-14T06:47:47.468Z,1032.88
2023-02-14T06:48:47.432Z,1032.87
2023-02-14T06:49:47.410Z,1032.94
2023-02-14T06:50:47.398Z,1032.90
2023-02-14T06:51:47.420Z,1032.96
2023-02-14T06:52:47.388Z,1032.89
2023-02-14T06:53:47.377Z,1032.94
2023-02-14T06:54:47.368Z,1032.86
2023-02-14T06:55:47.372Z,1032.88
2023-02-14T06:56:47.373Z,1032.97
2023-02-14T06:57:47.328Z,1032.99
2023-02-14T06:58:47.321Z,1032.96
2023-02-14T06:59:47.310Z,1032.93
2023-02-14T07:00:47.300Z,1032.95
2023-02-14T07:01:47.427Z,1032.91
2023-02-14T07:02:47.480Z,1032.89
2023-02-14T07:03:47.260Z,1032.92
2023-02-14T07:04:47.256Z,1032.82
2023-02-14T07:05:47.248Z,1032.84
2023-02-14T07:06:47.250Z,1032.92
2023-02-14T07:07:47.238Z,1032.88
2023-02-14T07:08:47.207Z,1032.92
2023-02-14T07:09:47.196Z,1032.89
2023-02-14T07:10:47.208Z,1032.89
2023-02-14T07:11:47.203Z,1032.92
2023-02-14T07:12:47.187Z,1032.86
2023-02-14T07:13:49.399Z,1032.84
2023-02-14T07:14:47.139Z,1032.84
2023-02-14T07:15:47.178Z,1032.87
2023-02-14T07:16:47.125Z,1032.81
2023-02-14T07:17:47.131Z,1032.93
2023-02-14T07:18:47.098Z,1032.89
2023-02-14T07:19:47.079Z,1032.85
2023-02-14T07:20:47.072Z,1032.90
2023-02-14T07:21:47.062Z,1032.86
2023-02-14T07:22:47.078Z,1032.86
2023-02-14T07:23:47.041Z,1032.86
2023-02-14T07:24:47.039Z,1032.87
2023-02-14T07:25:47.016Z,1032.83
2023-02-14T07:26:47.015Z,1032.84
2023-02-14T07:27:47.059Z,1032.86
2023-02-14T07:28:47.012Z,1032.84
2023-02-14T07:29:46.978Z,1032.88
2023-02-14T07:30:47.099Z,1032.86
2023-02-14T07:31:47.229Z,1032.86
2023-02-14T07:32:46.975Z,1032.85
2023-02-14T07:33:46.938Z,1032.87
2023-02-14T07:34:46.925Z,1032.94
2023-02-14T07:35:46.914Z,1032.91
2023-02-14T07:36:46.970Z,1032.91
2023-02-14T07:37:46.910Z,1032.88
2023-02-14T07:38:46.906Z,1032.92
2023-02-14T07:39:46.865Z,1032.97
2023-02-14T07:40:46.917Z,1032.90
2023-02-14T07:41:46.861Z,1032.93
2023-02-14T07:42:46.867Z,1032.87
2023-02-14T07:43:46.850Z,1032.87
2023-02-14T07:44:46.821Z,1032.85
2023-02-14T07:45:46.829Z,1032.88
2023-02-14T07:46:46.794Z,1032.81
2023-02-14T07:47:46.772Z,1032.84
2023-02-14T07:48:46.797Z,1032.83
2023-02-14T07:49:46.759Z,1032.80
2023-02-14T07:50:46.766Z,1032.84
2023-02-14T07:51:46.820Z,1032.84
2023-02-14T07:52:46.731Z,1032.83
2023-02-14T07:53:46.717Z,1032.83
2023-02-14T07:54:46.710Z,1032.80
2023-02-14T07:55:46.686Z,1032.83
2023-02-14T07:56:46.712Z,1032.81
2023-02-14T07:57:46.676Z,1032.84
2023-02-14T07:58:46.673Z,1032.79
2023-02-14T07:59:46.693Z,1032.81
2023-02-14T08:00:46.636Z,1032.79
2023-02-14T08:01:46.765Z,1032.88
2023-02-14T08:02:46.633Z,1032.87
2023-02-14T08:03:46.611Z,1032.87
2023-02-14T08:04:46.620Z,1032.87
2023-02-14T08:05:46.582Z,1032.87
2023-02-14T08:06:46.608Z,1032.88
2023-02-14T08:07:46.586Z,1032.88
2023-02-14T08:08:46.560Z,1032.84
2023-02-14T08:09:46.539Z,1032.84
2023-02-14T08:10:46.538Z,1032.87
2023-02-14T08:11:46.574Z,1032.89
2023-02-14T08:12:46.524Z,1032.90
2023-02-14T08:13:46.494Z,1032.92
2023-02-14T08:14:46.496Z,1032.95
2023-02-14T08:15:46.566Z,1032.92
2023-02-14T08:16:46.487Z,1032.94
2023-02-14T08:17:46.457Z,1032.96
2023-02-14T08:18:46.451Z,1032.96
2023-02-14T08:19:46.427Z,1032.99
2023-02-14T08:20:46.467Z,1033.03
2023-02-14T08:21:46.404Z,1033.01
2023-02-14T08:22:46.394Z,1033.04
2023-02-14T08:23:47.615Z,1033.01
2023-02-14T08:24:46.408Z,1033.02
2023-02-14T08:25:46.366Z,1033.09
2023-02-14T08:26:46.363Z,1033.02
2023-02-14T08:27:46.338Z,1033.04
2023-02-14T08:28:46.365Z,1033.08
2023-02-14T08:29:46.340Z,1033.13
2023-02-14T08:30:46.312Z,1033.12
2023-02-14T08:31:46.403Z,1033.08
2023-02-14T08:32:46.332Z,1033.09
2023-02-14T08:33:46.278Z,1033.14
2023-02-14T08:34:46.337Z,1033.12
2023-02-14T08:35:46.250Z,1033.17
2023-02-14T08:36:46.237Z,1033.19
2023-02-14T08:37:46.230Z,1033.14
2023-02-14T08:38:46.220Z,1033.13
2023-02-14T08:39:46.231Z,1033.19
2023-02-14T08:40:46.228Z,1033.20
2023-02-14T08:41:46.184Z,1033.21
2023-02-14T08:42:46.190Z,1033.23
2023-02-14T08:43:46.164Z,1033.20
2023-02-14T08:44:46.176Z,1033.25
2023-02-14T08:45:46.180Z,1033.27
2023-02-14T08:46:46.196Z,1033.22
2023-02-14T08:47:46.148Z,1033.27
2023-02-14T08:48:46.154Z,1033.24
2023-02-14T08:49:46.099Z,1033.23
2023-02-14T08:50:46.113Z,1033.32
2023-02-14T08:51:46.077Z,1033.30
2023-02-14T08:52:46.070Z,1033.34
2023-02-14T08:53:46.052Z,1033.33
2023-02-14T08:54:46.050Z,1033.29
2023-02-14T08:55:46.090Z,1033.32
2023-02-14T08:56:46.052Z,1033.28
2023-02-14T08:57:46.044Z,1033.22
2023-02-14T08:58:46.028Z,1033.26
2023-02-14T08:59:46.024Z,1033.18
2023-02-14T09:00:46.089Z,1033.26
2023-02-14T09:01:45.969Z,1033.27
2023-02-14T09:02:45.962Z,1033.26
2023-02-14T09:03:46.130Z,1033.30
2023-02-14T09:04:45.976Z,1033.28
2023-02-14T09:05:45.948Z,1033.28
2023-02-14T09:06:45.960Z,1033.29
2023-02-14T09:07:45.938Z,1033.24
2023-02-14T09:08:45.946Z,1033.27
2023-02-14T09:09:45.936Z,1033.25
2023-02-14T09:10:45.879Z,1033.24
2023-02-14T09:11:45.904Z,1033.20
2023-02-14T09:12:45.864Z,1033.17
2023-02-14T09:13:45.840Z,1033.29
2023-02-14T09:14:45.852Z,1033.24
2023-02-14T09:15:45.817Z,1033.26
2023-02-14T09:16:45.953Z,1033.24
2023-02-14T09:17:45.869Z,1033.33
2023-02-14T09:18:45.799Z,1033.32
2023-02-14T09:19:45.830Z,1033.41
2023-02-14T09:20:45.773Z,1033.44
2023-02-14T09:21:45.860Z,1033.31
2023-02-14T09:22:47.689Z,1033.33
2023-02-14T09:23:45.764Z,1033.37
2023-02-14T09:24:45.721Z,1033.34
2023-02-14T09:25:45.709Z,1033.32
2023-02-14T09:26:45.705Z,1033.31
2023-02-14T09:27:45.748Z,1033.40
2023-02-14T09:28:45.706Z,1033.33
2023-02-14T09:29:45.664Z,1033.33
2023-02-14T09:30:45.653Z,1033.32
2023-02-14T09:31:45.757Z,1033.28
2023-02-14T09:32:45.636Z,1033.29
2023-02-14T09:33:45.620Z,1033.32
2023-02-14T09:34:45.654Z,1033.34
2023-02-14T09:35:45.625Z,1033.31
2023-02-14T09:36:45.602Z,1033.34
2023-02-14T09:37:45.580Z,1033.29
2023-02-14T09:38:45.573Z,1033.33
2023-02-14T09:39:45.575Z,1033.30
2023-02-14T09:40:45.553Z,1033.33
2023-02-14T09:41:45.540Z,1033.30
2023-02-14T09:42:45.533Z,1033.29
2023-02-14T09:43:45.533Z,1033.23
2023-02-14T09:44:45.502Z,1033.23
2023-02-14T09:45:45.526Z,1033.19
2023-02-14T09:46:45.494Z,1033.23
2023-02-14T09:47:45.469Z,1033.31
2023-02-14T09:48:45.529Z,1033.29
2023-02-14T09:49:45.647Z,1033.29
2023-02-14T09:50:45.470Z,1033.35
2023-02-14T09:51:45.500Z,1033.33
2023-02-14T09:52:45.419Z,1033.31
2023-02-14T09:53:45.409Z,1033.30
2023-02-14T09:54:45.403Z,1033.25
2023-02-14T09:55:45.428Z,1033.29
2023-02-14T09:56:51.276Z,1033.30
2023-02-14T09:57:45.387Z,1033.25
2023-02-14T09:58:45.349Z,1033.29
2023-02-14T09:59:45.335Z,1033.32
2023-02-14T10:00:45.397Z,1033.33
2023-02-14T10:01:45.351Z,1033.33
2023-02-14T10:02:45.367Z,1033.33
2023-02-14T10:03:45.293Z,1033.37
2023-02-14T10:04:45.284Z,1033.28
2023-02-14T10:05:45.273Z,1033.28
2023-02-14T10:06:45.287Z,1033.30
2023-02-14T10:07:45.274Z,1033.27
2023-02-14T10:08:45.243Z,1033.32
2023-02-14T10:09:45.252Z,1033.36
2023-02-14T10:10:45.220Z,1033.34
2023-02-14T10:11:45.229Z,1033.36
2023-02-14T10:12:45.195Z,1033.38
2023-02-14T10:13:45.186Z,1033.31
2023-02-14T10:14:45.198Z,1033.37
2023-02-14T10:15:45.168Z,1033.38
2023-02-14T10:16:45.274Z,1033.31
2023-02-14T10:17:45.139Z,1033.29
2023-02-14T10:18:45.136Z,1033.31
2023-02-14T10:19:45.122Z,1033.27
2023-02-14T10:20:45.121Z,1033.29
2023-02-14T10:21:47.121Z,1033.35
2023-02-14T10:22:45.111Z,1033.31
2023-02-14T10:23:45.095Z,1033.32
2023-02-14T10:24:45.104Z,1033.25
2023-02-14T10:25:45.073Z,1033.18
2023-02-14T10:26:45.046Z,1033.24
2023-02-14T10:27:45.055Z,1033.17
2023-02-14T10:28:45.025Z,1033.24
2023-02-14T10:29:45.027Z,1033.19
2023-02-14T10:30:45.121Z,1033.22
2023-02-14T10:31:45.147Z,1033.18
2023-02-14T10:32:44.993Z,1033.17
2023-02-14T10:33:44.986Z,1033.15
2023-02-14T10:34:44.982Z,1033.21
2023-02-14T10:35:44.946Z,1033.20
2023-02-14T10:36:44.942Z,1033.19
2023-02-14T10:37:44.934Z,1033.23
2023-02-14T10:38:44.936Z,1033.16
2023-02-14T10:39:44.934Z,1033.19
2023-02-14T10:40:44.898Z,1033.17
2023-02-14T10:41:44.881Z,1033.17
2023-02-14T10:42:45.006Z,1033.10
2023-02-14T10:43:44.893Z,1033.09
2023-02-14T10:44:44.882Z,1033.13
2023-02-14T10:45:44.842Z,1033.13
2023-02-14T10:46:44.841Z,1033.14
2023-02-14T10:47:44.816Z,1033.11
2023-02-14T10:48:44.834Z,1033.12
2023-02-14T10:49:44.805Z,1033.08
2023-02-14T10:50:44.830Z,1033.04
2023-02-14T10:51:44.770Z,1033.08
2023-02-14T10:52:44.765Z,1033.06
2023-02-14T10:53:44.750Z,1033.08
2023-02-14T10:54:44.745Z,1033.13
2023-02-14T10:55:44.747Z,1033.08
2023-02-14T10:56:44.718Z,1033.03
2023-02-14T10:57:44.749Z,1033.10
2023-02-14T10:58:44.705Z,1033.05
2023-02-14T10:59:44.731Z,1033.06
2023-02-14T11:00:44.677Z,1033.09
2023-02-14T11:01:44.898Z,1033.08
2023-02-14T11:02:44.649Z,1033.10
2023-02-14T11:03:44.657Z,1033.09
2023-02-14T11:04:44.633Z,1033.16
2023-02-14T11:05:46.478Z,1033.11
2023-02-14T11:06:44.610Z,1033.04
2023-02-14T11:07:44.627Z,1033.10
2023-02-14T11:08:44.595Z,1032.99
2023-02-14T11:09:44.590Z,1033.04
2023-02-14T11:10:44.566Z,1033.04
2023-02-14T11:11:44.557Z,1033.00
2023-02-14T11:12:44.569Z,1033.01
2023-02-14T11:13:44.569Z,1033.01
2023-02-14T11:14:44.530Z,1033.00
2023-02-14T11:15:44.539Z,1032.96
2023-02-14T11:16:44.548Z,1032.98
2023-02-14T11:17:44.492Z,1032.87
2023-02-14T11:18:44.505Z,1032.94
2023-02-14T11:19:44.469Z,1032.97
2023-02-14T11:20:44.459Z,1032.98
2023-02-14T11:21:44.463Z,1032.99
2023-02-14T11:22:44.436Z,1032.93
2023-02-14T11:23:44.457Z,1032.93
2023-02-14T11:24:44.413Z,1032.99
2023-02-14T11:25:44.407Z,1032.97
2023-02-14T11:26:44.398Z,1032.98
2023-02-14T11:27:44.423Z,1032.95
2023-02-14T11:28:44.425Z,1032.90
2023-02-14T11:29:44.370Z,1032.98
2023-02-14T11:30:44.372Z,1032.94
2023-02-14T11:31:44.458Z,1032.94
2023-02-14T11:32:44.326Z,1032.93
2023-02-14T11:33:44.322Z,1032.88
2023-02-14T11:34:44.331Z,1032.84
2023-02-14T11:35:44.297Z,1032.90
2023-02-14T11:36:44.280Z,1032.87
2023-02-14T11:37:44.276Z,1032.86
2023-02-14T11:38:44.260Z,1032.86
2023-02-14T11:39:44.286Z,1032.84
2023-02-14T11:40:44.239Z,1032.86
2023-02-14T11:41:44.230Z,1032.86
2023-02-14T11:42:44.236Z,1032.81
2023-02-14T11:43:44.235Z,1032.85
2023-02-14T11:44:44.198Z,1032.77
2023-02-14T11:45:44.248Z,1032.83
2023-02-14T11:46:52.750Z,1032.82
2023-02-14T11:47:45.201Z,1032.82
2023-02-14T11:48:44.184Z,1032.78
2023-02-14T11:49:44.149Z,1032.80
2023-02-14T11:50:44.142Z,1032.73
2023-02-14T11:51:44.127Z,1032.73
2023-02-14T11:52:44.113Z,1032.73
2023-02-14T11:53:44.102Z,1032.79
2023-02-14T11:54:44.108Z,1032.76
2023-02-14T11:55:44.078Z,1032.73
2023-02-14T11:56:44.069Z,1032.76
2023-02-14T11:57:44.058Z,1032.73
2023-02-14T11:58:44.049Z,1032.72
2023-02-14T11:59:44.078Z,1032.78
2023-02-14T12:00:44.020Z,1032.75
2023-02-14T12:01:44.015Z,1032.71
2023-02-14T12:02:44.012Z,1032.70
2023-02-14T12:03:44.015Z,1032.69
2023-02-14T12:04:46.598Z,1032.61
2023-02-14T12:05:43.984Z,1032.62